createdAt,value
2022-10-31T00:00:58.860Z,99370.43
2022-10-31T00:06:21.525Z,99370.10
2022-10-31T00:11:24.926Z,99370.31
2022-10-31T00:16:29.335Z,99367.27
2022-10-31T00:21:33.446Z,99375.91
2022-10-31T00:26:36.301Z,99378.67
2022-10-31T00:31:40.152Z,99382.00
2022-10-31T00:36:43.236Z,99383.02
2022-10-31T00:41:49.793Z,99382.30
2022-10-31T00:46:52.701Z,99381.95
2022-10-31T00:51:58.243Z,99386.16
2022-10-31T00:57:01.203Z,99390.27
2022-10-31T01:02:04.240Z,99384.84
2022-10-31T01:07:07.254Z,99383.95
2022-10-31T01:12:10.194Z,99377.30
2022-10-31T01:17:15.527Z,99375.90
2022-10-31T01:22:18.349Z,99373.48
2022-10-31T01:27:21.219Z,99377.39
2022-10-31T01:32:25.806Z,99369.27
2022-10-31T01:37:28.740Z,99363.15
2022-10-31T01:42:31.599Z,99364.11
2022-10-31T01:47:42.179Z,99359.02
2022-10-31T01:52:50.623Z,99356.05
2022-10-31T01:57:58.933Z,99355.56
2022-10-31T02:03:02.581Z,99357.76
2022-10-31T02:08:12.512Z,99356.75
2022-10-31T02:13:15.573Z,99361.15
2022-10-31T02:18:25.513Z,99361.91
2022-10-31T02:23:50.617Z,99357.27
2022-10-31T02:29:06.208Z,99362.73
2022-10-31T02:34:15.037Z,99361.30
2022-10-31T02:39:52.283Z,99365.97
2022-10-31T02:45:12.072Z,99371.13
2022-10-31T02:50:24.622Z,99372.52
2022-10-31T02:55:27.387Z,99375.72
2022-10-31T03:00:51.256Z,99379.33
2022-10-31T03:06:30.643Z,99378.35
2022-10-31T03:11:50.970Z,99375.78
2022-10-31T03:16:58.543Z,99379.35
2022-10-31T03:22:27.056Z,99383.92
2022-10-31T03:27:36.001Z,99387.55
2022-10-31T03:32:55.639Z,99385.31
2022-10-31T03:38:06.804Z,99388.58
2022-10-31T03:48:28.775Z,99399.09
2022-10-31T03:53:50.204Z,99401.98
2022-10-31T03:59:01.379Z,99400.15
2022-10-31T04:04:07.415Z,99397.70
2022-10-31T04:09:11.054Z,99397.35
2022-10-31T04:14:13.879Z,99397.20
2022-10-31T04:19:18.346Z,99398.30
2022-10-31T04:24:21.428Z,99399.20
2022-10-31T04:29:25.009Z,99399.23
2022-10-31T04:34:28.157Z,99401.89
2022-10-31T04:39:31.033Z,99402.66
2022-10-31T04:44:54.035Z,99400.69
2022-10-31T04:49:57.188Z,99400.56
2022-10-31T04:55:00.084Z,99402.35
2022-10-31T05:00:29.890Z,99405.04
2022-10-31T05:05:33.569Z,99407.59
2022-10-31T05:10:39.267Z,99410.30
2022-10-31T05:15:42.206Z,99414.23
2022-10-31T05:21:03.313Z,99419.78
2022-10-31T05:26:14.785Z,99417.06
2022-10-31T05:31:17.768Z,99422.92
2022-10-31T05:36:20.965Z,99422.58
2022-10-31T05:41:39.490Z,99431.23
2022-10-31T05:46:49.296Z,99430.98
2022-10-31T05:52:30.688Z,99439.25
2022-10-31T05:57:39.165Z,99443.92
2022-10-31T06:02:42.026Z,99448.55
2022-10-31T06:08:07.856Z,99455.41
2022-10-31T06:13:11.460Z,99455.45
2022-10-31T06:18:20.425Z,99461.94
2022-10-31T06:23:25.306Z,99467.49
2022-10-31T06:28:32.311Z,99472.98
2022-10-31T06:33:49.940Z,99477.58
2022-10-31T06:38:53.480Z,99480.84
2022-10-31T06:43:58.281Z,99488.49
2022-10-31T06:49:24.122Z,99486.14
2022-10-31T06:54:30.628Z,99490.77
2022-10-31T06:59:33.581Z,99497.16
2022-10-31T07:04:42.285Z,99498.83
2022-10-31T07:09:47.570Z,99499.31
2022-10-31T07:14:51.493Z,99499.90
2022-10-31T07:19:54.622Z,99502.39
2022-10-31T07:24:57.748Z,99506.77
2022-10-31T07:30:14.724Z,99505.44
2022-10-31T07:35:28.884Z,99502.11
2022-10-31T07:40:35.445Z,99501.13
2022-10-31T07:45:38.930Z,99495.30
2022-10-31T07:51:02.030Z,99494.13
2022-10-31T07:56:23.473Z,99497.30
2022-10-31T08:01:26.439Z,99497.76
2022-10-31T08:06:58.293Z,99494.43
2022-10-31T08:12:05.095Z,99498.41
2022-10-31T08:17:08.905Z,99500.46
2022-10-31T08:22:20.481Z,99501.23
2022-10-31T08:27:24.693Z,99502.86
2022-10-31T08:32:28.101Z,99499.77
2022-10-31T08:38:13.577Z,99496.45
2022-10-31T08:43:19.930Z,99497.92
2022-10-31T08:48:24.209Z,99496.16
2022-10-31T08:53:27.891Z,99493.23
2022-10-31T08:58:55.035Z,99491.90
2022-10-31T09:04:06.259Z,99486.45
2022-10-31T09:09:09.094Z,99482.98
2022-10-31T09:14:12.043Z,99488.80
2022-10-31T09:19:14.857Z,99490.56
2022-10-31T09:24:22.982Z,99486.70
2022-10-31T09:29:25.808Z,99488.30
2022-10-31T09:34:33.562Z,99484.40
2022-10-31T09:39:45.315Z,99490.34
2022-10-31T09:45:13.341Z,99493.14
2022-10-31T09:50:33.898Z,99492.61
2022-10-31T09:55:43.675Z,99496.38
2022-10-31T10:00:49.165Z,99495.25
2022-10-31T10:05:52.196Z,99495.75
2022-10-31T10:11:21.329Z,99500.00
2022-10-31T10:17:02.641Z,99495.33
2022-10-31T10:22:36.156Z,99492.04
2022-10-31T10:27:50.624Z,99489.64
2022-10-31T10:32:58.704Z,99479.91
2022-10-31T10:38:22.975Z,99480.66
2022-10-31T10:43:33.971Z,99479.88
2022-10-31T10:48:44.681Z,99477.31
2022-10-31T10:54:04.149Z,99475.05
2022-10-31T10:59:14.960Z,99470.42
2022-10-31T11:04:34.591Z,99469.27
2022-10-31T11:09:38.711Z,99466.23
2022-10-31T11:14:51.761Z,99466.41
2022-10-31T11:20:31.449Z,99465.65
2022-10-31T11:25:34.363Z,99462.70
2022-10-31T11:30:47.750Z,99456.75
2022-10-31T11:35:53.499Z,99450.31
2022-10-31T11:41:18.815Z,99450.80
2022-10-31T11:46:46.996Z,99447.98
2022-10-31T11:51:57.737Z,99445.41
2022-10-31T11:57:01.035Z,99444.96
2022-10-31T12:02:19.789Z,99441.84
2022-10-31T12:07:24.379Z,99435.48
2022-10-31T12:12:44.615Z,99432.08
2022-10-31T12:18:03.863Z,99430.69
2022-10-31T12:23:44.279Z,99425.86
2022-10-31T12:29:00.838Z,99420.56
2022-10-31T12:34:22.460Z,99421.35
2022-10-31T12:39:35.494Z,99419.38
2022-10-31T12:44:53.376Z,99419.28
2022-10-31T12:50:08.180Z,99415.15
2022-10-31T12:55:23.515Z,99415.17
2022-10-31T13:00:30.380Z,99407.96
2022-10-31T13:05:45.941Z,99407.80
2022-10-31T13:11:07.357Z,99404.65
2022-10-31T13:16:18.734Z,99405.84
2022-10-31T13:21:38.397Z,99408.56
2022-10-31T13:26:50.203Z,99410.66
2022-10-31T13:31:53.178Z,99410.81
2022-10-31T13:36:59.015Z,99408.15
2022-10-31T13:42:11.445Z,99406.77
2022-10-31T13:47:29.836Z,99408.13
2022-10-31T13:52:32.747Z,99404.97
2022-10-31T13:57:45.102Z,99404.70
2022-10-31T14:02:58.790Z,99404.69
2022-10-31T14:08:07.482Z,99401.69
2022-10-31T14:13:19.364Z,99396.92
2022-10-31T14:18:31.411Z,99391.50
2022-10-31T14:23:41.702Z,99393.73
2022-10-31T14:28:45.391Z,99392.60
2022-10-31T14:33:49.093Z,99387.52
2022-10-31T14:38:57.084Z,99386.88
2022-10-31T14:44:38.951Z,99387.10
2022-10-31T14:50:01.555Z,99385.22
2022-10-31T14:55:08.279Z,99390.05
2022-10-31T15:00:18.980Z,99383.36
2022-10-31T15:05:22.468Z,99382.67
2022-10-31T15:10:30.766Z,99386.23
2022-10-31T15:15:35.073Z,99389.67
2022-10-31T15:20:44.807Z,99393.77
2022-10-31T15:25:47.912Z,99392.23
2022-10-31T15:30:56.484Z,99394.15
2022-10-31T15:36:02.067Z,99392.09
2022-10-31T15:41:22.930Z,99394.69
2022-10-31T15:46:28.233Z,99400.53
2022-10-31T15:51:34.686Z,99402.88
2022-10-31T15:56:37.728Z,99406.71
2022-10-31T16:01:40.707Z,99406.08
2022-10-31T16:06:43.638Z,99405.66
2022-10-31T16:11:46.628Z,99409.27
2022-10-31T16:16:53.462Z,99416.81
2022-10-31T16:22:09.631Z,99413.48
2022-10-31T16:27:24.306Z,99416.82
2022-10-31T16:32:52.341Z,99425.54
2022-10-31T16:37:55.609Z,99427.54
2022-10-31T16:43:00.629Z,99430.81
2022-10-31T16:48:09.935Z,99432.50
2022-10-31T16:53:15.748Z,99428.47
2022-10-31T16:58:36.805Z,99429.41
2022-10-31T17:03:40.248Z,99432.95
2022-10-31T17:08:43.181Z,99432.71
2022-10-31T17:13:46.350Z,99437.15
2022-10-31T17:18:49.260Z,99436.65
2022-10-31T17:23:52.383Z,99435.73
2022-10-31T17:28:56.125Z,99437.23
2022-10-31T17:34:02.729Z,99434.45
2022-10-31T17:39:09.394Z,99436.92
2022-10-31T17:44:12.893Z,99436.55
2022-10-31T17:49:15.864Z,99435.91
2022-10-31T17:54:22.768Z,99437.22
2022-10-31T17:59:27.702Z,99438.05
2022-10-31T18:04:30.784Z,99436.04
2022-10-31T18:09:34.388Z,99439.67
2022-10-31T18:14:37.337Z,99436.51
2022-10-31T18:19:40.376Z,99436.89
2022-10-31T18:24:43.279Z,99434.64
2022-10-31T18:29:47.439Z,99433.87
2022-10-31T18:34:50.461Z,99429.06
2022-10-31T18:39:53.240Z,99423.52
2022-10-31T18:44:56.504Z,99421.29
2022-10-31T18:50:01.329Z,99415.95
2022-10-31T18:55:04.728Z,99429.06
2022-10-31T19:00:08.326Z,99426.23
2022-10-31T19:05:11.175Z,99427.23
2022-10-31T19:10:17.538Z,99425.30
2022-10-31T19:15:20.902Z,99422.08
2022-10-31T19:20:24.002Z,99419.55
2022-10-31T19:25:26.910Z,99414.15
2022-10-31T19:30:29.717Z,99410.34
2022-10-31T19:35:32.567Z,99405.45
2022-10-31T19:40:36.684Z,99410.98
2022-10-31T19:45:39.517Z,99408.98
2022-10-31T19:50:42.349Z,99413.45
2022-10-31T19:55:45.452Z,99413.88
2022-10-31T20:00:48.470Z,99410.45
2022-10-31T20:05:51.628Z,99412.55
2022-10-31T20:11:04.255Z,99405.88
2022-10-31T20:16:10.064Z,99407.48
2022-10-31T20:21:15.719Z,99404.38
2022-10-31T20:26:19.350Z,99402.51
2022-10-31T20:31:24.518Z,99405.83
2022-10-31T20:36:29.643Z,99403.14
2022-10-31T20:41:32.743Z,99401.45
2022-10-31T20:46:35.697Z,99405.16
2022-10-31T20:51:38.743Z,99404.30
2022-10-31T20:56:42.660Z,99401.63
2022-10-31T21:01:45.725Z,99398.05
2022-10-31T21:06:49.711Z,99402.53
2022-10-31T21:11:52.729Z,99403.95
2022-10-31T21:16:55.801Z,99393.89
2022-10-31T21:21:58.687Z,99397.04
2022-10-31T21:27:02.816Z,99395.58
2022-10-31T21:32:06.173Z,99390.94
2022-10-31T21:37:09.045Z,99389.05
2022-10-31T21:42:11.875Z,99386.89
2022-10-31T21:47:15.268Z,99385.15
2022-10-31T21:52:18.286Z,99381.04
2022-10-31T22:02:25.101Z,99370.20
2022-10-31T22:07:28.020Z,99367.10
2022-10-31T22:12:30.868Z,99361.77
2022-10-31T22:17:33.967Z,99354.51
2022-10-31T22:22:36.795Z,99351.17
2022-10-31T22:27:39.607Z,99350.95
2022-10-31T22:32:42.468Z,99346.81
2022-10-31T22:37:45.385Z,99342.42
2022-10-31T22:42:48.178Z,99336.49
2022-10-31T22:47:51.104Z,99340.95
2022-10-31T22:52:53.899Z,99337.55
2022-10-31T22:57:57.891Z,99335.55
2022-10-31T23:03:01.256Z,99330.53
2022-10-31T23:08:04.605Z,99328.23
2022-10-31T23:13:27.984Z,99327.94
2022-10-31T23:18:49.165Z,99319.99
2022-10-31T23:23:52.764Z,99309.86
2022-10-31T23:28:55.590Z,99308.44
2022-10-31T23:33:58.393Z,99304.95
2022-10-31T23:39:01.248Z,99297.28
2022-10-31T23:44:04.613Z,99297.57
2022-10-31T23:49:07.477Z,99290.94
2022-10-31T23:54:10.262Z,99286.19
2022-10-31T23:59:13.284Z,99279.90
